sensor_id;sensor_type;location;lat;lon;timestamp;P1;durP1;ratioP1;P2;durP2;ratioP2
71937;SDS011;59810;48.800;9.086;2023-04-24T00:00:17;3.13;;;0.60;;
71937;SDS011;59810;48.800;9.086;2023-04-24T00:02:43;2.42;;;0.70;;
71937;SDS011;59810;48.800;9.086;2023-04-24T00:05:13;1.00;;;0.50;;
71937;SDS011;59810;48.800;9.086;2023-04-24T00:07:43;2.08;;;0.50;;
71937;SDS011;59810;48.800;9.086;2023-04-24T00:10:09;2.38;;;0.40;;
71937;SDS011;59810;48.800;9.086;2023-04-24T00:12:34;3.83;;;0.80;;
71937;SDS011;59810;48.800;9.086;2023-04-24T00:15:00;2.13;;;0.68;;
71937;SDS011;59810;48.800;9.086;2023-04-24T00:17:26;2.25;;;0.60;;
71937;SDS011;59810;48.800;9.086;2023-04-24T00:19:52;2.10;;;0.60;;
71937;SDS011;59810;48.800;9.086;2023-04-24T00:22:23;3.78;;;0.55;;
71937;SDS011;59810;48.800;9.086;2023-04-24T00:24:52;2.87;;;0.60;;
71937;SDS011;59810;48.800;9.086;2023-04-24T00:27:18;1.38;;;0.47;;
71937;SDS011;59810;48.800;9.086;2023-04-24T00:29:46;2.13;;;0.50;;
71937;SDS011;59810;48.800;9.086;2023-04-24T00:32:11;3.05;;;0.50;;
71937;SDS011;59810;48.800;9.086;2023-04-24T00:34:37;1.27;;;0.47;;
71937;SDS011;59810;48.800;9.086;2023-04-24T00:37:04;1.45;;;0.50;;
71937;SDS011;59810;48.800;9.086;2023-04-24T00:39:31;2.93;;;0.60;;
71937;SDS011;59810;48.800;9.086;2023-04-24T00:41:56;1.88;;;0.65;;
71937;SDS011;59810;48.800;9.086;2023-04-24T00:44:22;1.73;;;0.50;;
71937;SDS011;59810;48.800;9.086;2023-04-24T00:46:48;1.45;;;0.50;;
71937;SDS011;59810;48.800;9.086;2023-04-24T00:49:17;3.40;;;0.50;;
71937;SDS011;59810;48.800;9.086;2023-04-24T00:51:43;1.30;;;0.43;;
71937;SDS011;59810;48.800;9.086;2023-04-24T00:54:10;1.85;;;0.60;;
71937;SDS011;59810;48.800;9.086;2023-04-24T00:56:39;2.73;;;0.83;;
71937;SDS011;59810;48.800;9.086;2023-04-24T00:59:05;2.88;;;0.52;;
71937;SDS011;59810;48.800;9.086;2023-04-24T01:01:31;2.10;;;0.60;;
71937;SDS011;59810;48.800;9.086;2023-04-24T01:04:00;2.22;;;0.40;;
71937;SDS011;59810;48.800;9.086;2023-04-24T01:06:29;2.35;;;0.50;;
71937;SDS011;59810;48.800;9.086;2023-04-24T01:08:56;2.53;;;0.40;;
71937;SDS011;59810;48.800;9.086;2023-04-24T01:11:22;1.02;;;0.43;;
71937;SDS011;59810;48.800;9.086;2023-04-24T01:13:47;2.27;;;0.53;;
71937;SDS011;59810;48.800;9.086;2023-04-24T01:16:13;1.92;;;0.50;;
71937;SDS011;59810;48.800;9.086;2023-04-24T01:18:42;3.33;;;0.50;;
71937;SDS011;59810;48.800;9.086;2023-04-24T01:21:08;3.15;;;0.50;;
71937;SDS011;59810;48.800;9.086;2023-04-24T01:23:34;1.30;;;0.40;;
71937;SDS011;59810;48.800;9.086;2023-04-24T01:25:59;1.50;;;0.70;;
71937;SDS011;59810;48.800;9.086;2023-04-24T01:28:25;4.07;;;0.80;;
71937;SDS011;59810;48.800;9.086;2023-04-24T01:30:51;2.25;;;0.47;;
71937;SDS011;59810;48.800;9.086;2023-04-24T01:33:18;1.27;;;0.47;;
71937;SDS011;59810;48.800;9.086;2023-04-24T01:35:46;1.67;;;0.40;;
71937;SDS011;59810;48.800;9.086;2023-04-24T01:38:11;3.15;;;0.70;;
71937;SDS011;59810;48.800;9.086;2023-04-24T01:40:36;3.03;;;0.50;;
71937;SDS011;59810;48.800;9.086;2023-04-24T01:43:05;2.83;;;0.50;;
71937;SDS011;59810;48.800;9.086;2023-04-24T01:45:30;4.27;;;0.50;;
71937;SDS011;59810;48.800;9.086;2023-04-24T01:47:56;2.63;;;0.40;;
71937;SDS011;59810;48.800;9.086;2023-04-24T01:50:22;4.13;;;0.70;;
71937;SDS011;59810;48.800;9.086;2023-04-24T01:52:47;2.08;;;0.68;;
71937;SDS011;59810;48.800;9.086;2023-04-24T01:55:13;4.57;;;0.80;;
71937;SDS011;59810;48.800;9.086;2023-04-24T01:57:38;1.63;;;0.50;;
71937;SDS011;59810;48.800;9.086;2023-04-24T02:00:04;2.75;;;0.50;;
71937;SDS011;59810;48.800;9.086;2023-04-24T02:02:31;2.35;;;0.40;;
71937;SDS011;59810;48.800;9.086;2023-04-24T02:04:57;3.23;;;0.60;;
71937;SDS011;59810;48.800;9.086;2023-04-24T02:07:22;2.30;;;0.50;;
71937;SDS011;59810;48.800;9.086;2023-04-24T02:09:48;1.65;;;0.50;;
71937;SDS011;59810;48.800;9.086;2023-04-24T02:12:15;3.37;;;0.70;;
71937;SDS011;59810;48.800;9.086;2023-04-24T02:14:42;3.58;;;0.52;;
71937;SDS011;59810;48.800;9.086;2023-04-24T02:17:08;1.67;;;0.50;;
71937;SDS011;59810;48.800;9.086;2023-04-24T02:19:33;2.27;;;0.50;;
71937;SDS011;59810;48.800;9.086;2023-04-24T02:21:59;1.63;;;0.60;;
71937;SDS011;59810;48.800;9.086;2023-04-24T02:24:24;1.33;;;0.50;;
71937;SDS011;59810;48.800;9.086;2023-04-24T02:26:49;2.43;;;0.40;;
71937;SDS011;59810;48.800;9.086;2023-04-24T02:29:15;1.43;;;0.47;;
71937;SDS011;59810;48.800;9.086;2023-04-24T02:31:40;2.80;;;0.73;;
71937;SDS011;59810;48.800;9.086;2023-04-24T02:34:06;1.80;;;0.50;;
71937;SDS011;59810;48.800;9.086;2023-04-24T02:36:31;2.63;;;0.50;;
71937;SDS011;59810;48.800;9.086;2023-04-24T02:38:56;1.77;;;0.50;;
71937;SDS011;59810;48.800;9.086;2023-04-24T02:41:22;1.50;;;0.60;;
71937;SDS011;59810;48.800;9.086;2023-04-24T02:43:47;2.17;;;0.50;;
71937;SDS011;59810;48.800;9.086;2023-04-24T02:46:13;1.43;;;0.50;;
71937;SDS011;59810;48.800;9.086;2023-04-24T02:48:40;3.47;;;0.60;;
71937;SDS011;59810;48.800;9.086;2023-04-24T02:51:08;2.72;;;0.65;;
71937;SDS011;59810;48.800;9.086;2023-04-24T02:53:35;2.47;;;0.60;;
71937;SDS011;59810;48.800;9.086;2023-04-24T02:56:01;3.53;;;0.60;;
71937;SDS011;59810;48.800;9.086;2023-04-24T02:58:26;3.07;;;0.50;;
71937;SDS011;59810;48.800;9.086;2023-04-24T03:00:54;1.70;;;0.60;;
71937;SDS011;59810;48.800;9.086;2023-04-24T03:03:22;3.55;;;0.60;;
71937;SDS011;59810;48.800;9.086;2023-04-24T03:05:48;3.95;;;0.60;;
71937;SDS011;59810;48.800;9.086;2023-04-24T03:08:14;2.03;;;0.63;;
71937;SDS011;59810;48.800;9.086;2023-04-24T03:10:40;2.40;;;0.52;;
71937;SDS011;59810;48.800;9.086;2023-04-24T03:13:05;1.73;;;0.50;;
71937;SDS011;59810;48.800;9.086;2023-04-24T03:15:31;2.23;;;0.50;;
71937;SDS011;59810;48.800;9.086;2023-04-24T03:17:56;2.60;;;0.50;;
71937;SDS011;59810;48.800;9.086;2023-04-24T03:20:21;3.27;;;0.60;;
71937;SDS011;59810;48.800;9.086;2023-04-24T03:22:47;2.10;;;0.60;;
71937;SDS011;59810;48.800;9.086;2023-04-24T03:25:12;2.93;;;0.60;;
71937;SDS011;59810;48.800;9.086;2023-04-24T03:27:37;1.60;;;0.50;;
71937;SDS011;59810;48.800;9.086;2023-04-24T03:30:04;1.63;;;0.43;;
71937;SDS011;59810;48.800;9.086;2023-04-24T03:32:31;1.20;;;0.40;;
71937;SDS011;59810;48.800;9.086;2023-04-24T03:34:59;1.80;;;0.60;;
71937;SDS011;59810;48.800;9.086;2023-04-24T03:37:25;2.65;;;0.60;;
71937;SDS011;59810;48.800;9.086;2023-04-24T03:39:51;2.78;;;0.40;;
71937;SDS011;59810;48.800;9.086;2023-04-24T03:42:16;2.07;;;0.43;;
71937;SDS011;59810;48.800;9.086;2023-04-24T03:44:45;3.08;;;0.50;;
71937;SDS011;59810;48.800;9.086;2023-04-24T03:47:11;2.40;;;0.60;;
71937;SDS011;59810;48.800;9.086;2023-04-24T03:49:36;3.35;;;0.40;;
71937;SDS011;59810;48.800;9.086;2023-04-24T03:52:01;1.60;;;0.50;;
71937;SDS011;59810;48.800;9.086;2023-04-24T03:54:27;2.03;;;0.50;;
71937;SDS011;59810;48.800;9.086;2023-04-24T03:56:54;3.13;;;0.50;;
71937;SDS011;59810;48.800;9.086;2023-04-24T03:59:20;2.37;;;0.53;;
71937;SDS011;59810;48.800;9.086;2023-04-24T04:01:45;3.37;;;0.67;;
71937;SDS011;59810;48.800;9.086;2023-04-24T04:04:11;3.40;;;0.50;;
71937;SDS011;59810;48.800;9.086;2023-04-24T04:06:39;2.20;;;0.55;;
71937;SDS011;59810;48.800;9.086;2023-04-24T04:09:13;0.77;;;0.30;;
71937;SDS011;59810;48.800;9.086;2023-04-24T04:11:41;2.17;;;0.50;;
71937;SDS011;59810;48.800;9.086;2023-04-24T04:14:07;1.70;;;0.40;;
71937;SDS011;59810;48.800;9.086;2023-04-24T04:16:32;2.03;;;0.60;;
71937;SDS011;59810;48.800;9.086;2023-04-24T04:18:57;2.70;;;0.88;;
71937;SDS011;59810;48.800;9.086;2023-04-24T04:21:25;3.87;;;0.73;;
71937;SDS011;59810;48.800;9.086;2023-04-24T04:23:53;4.20;;;0.90;;
71937;SDS011;59810;48.800;9.086;2023-04-24T04:26:21;2.00;;;0.60;;
71937;SDS011;59810;48.800;9.086;2023-04-24T04:28:50;3.92;;;0.90;;
71937;SDS011;59810;48.800;9.086;2023-04-24T04:31:19;2.58;;;0.70;;
71937;SDS011;59810;48.800;9.086;2023-04-24T04:33:45;2.72;;;0.80;;
71937;SDS011;59810;48.800;9.086;2023-04-24T04:36:12;2.03;;;0.70;;
71937;SDS011;59810;48.800;9.086;2023-04-24T04:38:38;2.53;;;0.80;;
71937;SDS011;59810;48.800;9.086;2023-04-24T04:41:03;5.17;;;1.27;;
71937;SDS011;59810;48.800;9.086;2023-04-24T04:43:29;2.30;;;0.60;;
71937;SDS011;59810;48.800;9.086;2023-04-24T04:45:57;1.40;;;0.60;;
71937;SDS011;59810;48.800;9.086;2023-04-24T04:48:28;3.53;;;0.70;;
71937;SDS011;59810;48.800;9.086;2023-04-24T04:51:00;1.85;;;0.60;;
71937;SDS011;59810;48.800;9.086;2023-04-24T04:53:29;2.25;;;0.70;;
71937;SDS011;59810;48.800;9.086;2023-04-24T04:55:54;1.80;;;0.50;;
71937;SDS011;59810;48.800;9.086;2023-04-24T04:58:22;2.33;;;0.80;;
71937;SDS011;59810;48.800;9.086;2023-04-24T05:00:47;3.33;;;0.70;;
71937;SDS011;59810;48.800;9.086;2023-04-24T05:03:18;2.80;;;0.90;;
71937;SDS011;59810;48.800;9.086;2023-04-24T05:05:44;2.42;;;0.85;;
71937;SDS011;59810;48.800;9.086;2023-04-24T05:08:09;3.33;;;1.10;;
71937;SDS011;59810;48.800;9.086;2023-04-24T05:10:35;2.65;;;0.98;;
71937;SDS011;59810;48.800;9.086;2023-04-24T05:13:02;2.83;;;0.90;;
71937;SDS011;59810;48.800;9.086;2023-04-24T05:15:27;2.40;;;0.80;;
71937;SDS011;59810;48.800;9.086;2023-04-24T05:17:53;5.07;;;0.90;;
71937;SDS011;59810;48.800;9.086;2023-04-24T05:20:18;2.80;;;0.90;;
71937;SDS011;59810;48.800;9.086;2023-04-24T05:22:46;4.40;;;0.90;;
71937;SDS011;59810;48.800;9.086;2023-04-24T05:25:11;2.75;;;0.90;;
71937;SDS011;59810;48.800;9.086;2023-04-24T05:27:37;3.03;;;0.70;;
71937;SDS011;59810;48.800;9.086;2023-04-24T05:30:03;3.42;;;0.70;;
71937;SDS011;59810;48.800;9.086;2023-04-24T05:32:29;3.15;;;0.75;;
71937;SDS011;59810;48.800;9.086;2023-04-24T05:34:55;4.50;;;0.83;;
71937;SDS011;59810;48.800;9.086;2023-04-24T05:37:20;3.97;;;0.80;;
71937;SDS011;59810;48.800;9.086;2023-04-24T05:39:45;2.33;;;0.82;;
71937;SDS011;59810;48.800;9.086;2023-04-24T05:42:11;2.57;;;0.80;;
71937;SDS011;59810;48.800;9.086;2023-04-24T05:44:38;3.50;;;0.87;;
71937;SDS011;59810;48.800;9.086;2023-04-24T05:47:04;3.03;;;0.90;;
71937;SDS011;59810;48.800;9.086;2023-04-24T05:49:29;3.87;;;0.80;;
71937;SDS011;59810;48.800;9.086;2023-04-24T05:51:55;3.37;;;0.63;;
71937;SDS011;59810;48.800;9.086;2023-04-24T05:54:20;2.73;;;0.80;;
71937;SDS011;59810;48.800;9.086;2023-04-24T05:56:46;3.17;;;0.90;;
71937;SDS011;59810;48.800;9.086;2023-04-24T05:59:11;4.10;;;0.80;;
71937;SDS011;59810;48.800;9.086;2023-04-24T06:01:36;3.23;;;0.97;;
71937;SDS011;59810;48.800;9.086;2023-04-24T06:04:03;3.45;;;1.05;;
71937;SDS011;59810;48.800;9.086;2023-04-24T06:06:29;2.50;;;0.80;;
71937;SDS011;59810;48.800;9.086;2023-04-24T06:08:55;2.83;;;0.87;;
71937;SDS011;59810;48.800;9.086;2023-04-24T06:11:26;4.50;;;0.98;;
71937;SDS011;59810;48.800;9.086;2023-04-24T06:13:54;3.67;;;1.00;;
71937;SDS011;59810;48.800;9.086;2023-04-24T06:16:19;2.83;;;0.80;;
71937;SDS011;59810;48.800;9.086;2023-04-24T06:18:45;2.40;;;0.80;;
71937;SDS011;59810;48.800;9.086;2023-04-24T06:21:12;2.17;;;0.70;;
71937;SDS011;59810;48.800;9.086;2023-04-24T06:23:37;2.77;;;0.80;;
71937;SDS011;59810;48.800;9.086;2023-04-24T06:26:05;2.20;;;0.70;;
71937;SDS011;59810;48.800;9.086;2023-04-24T06:28:30;3.75;;;0.90;;
71937;SDS011;59810;48.800;9.086;2023-04-24T06:30:55;7.43;;;1.13;;
71937;SDS011;59810;48.800;9.086;2023-04-24T06:33:21;4.00;;;1.10;;
71937;SDS011;59810;48.800;9.086;2023-04-24T06:35:46;3.00;;;0.70;;
71937;SDS011;59810;48.800;9.086;2023-04-24T06:38:12;2.60;;;0.80;;
71937;SDS011;59810;48.800;9.086;2023-04-24T06:40:40;3.15;;;1.02;;
71937;SDS011;59810;48.800;9.086;2023-04-24T06:43:06;2.10;;;0.83;;
71937;SDS011;59810;48.800;9.086;2023-04-24T06:45:33;2.60;;;0.90;;
71937;SDS011;59810;48.800;9.086;2023-04-24T06:48:01;3.53;;;0.90;;
71937;SDS011;59810;48.800;9.086;2023-04-24T06:50:26;3.20;;;1.10;;
71937;SDS011;59810;48.800;9.086;2023-04-24T06:52:52;2.77;;;0.93;;
71937;SDS011;59810;48.800;9.086;2023-04-24T06:55:17;4.43;;;1.03;;
71937;SDS011;59810;48.800;9.086;2023-04-24T06:57:43;3.57;;;1.17;;
71937;SDS011;59810;48.800;9.086;2023-04-24T07:00:09;3.47;;;1.20;;
71937;SDS011;59810;48.800;9.086;2023-04-24T07:02:35;3.13;;;0.98;;
71937;SDS011;59810;48.800;9.086;2023-04-24T07:05:00;4.07;;;1.23;;
71937;SDS011;59810;48.800;9.086;2023-04-24T07:07:26;6.03;;;1.10;;
71937;SDS011;59810;48.800;9.086;2023-04-24T07:09:52;4.20;;;1.15;;
71937;SDS011;59810;48.800;9.086;2023-04-24T07:12:21;3.43;;;1.20;;
71937;SDS011;59810;48.800;9.086;2023-04-24T07:14:49;4.90;;;1.15;;
71937;SDS011;59810;48.800;9.086;2023-04-24T07:17:17;4.30;;;1.00;;
71937;SDS011;59810;48.800;9.086;2023-04-24T07:19:45;2.92;;;1.10;;
71937;SDS011;59810;48.800;9.086;2023-04-24T07:22:11;3.33;;;1.30;;
71937;SDS011;59810;48.800;9.086;2023-04-24T07:24:41;5.13;;;1.15;;
71937;SDS011;59810;48.800;9.086;2023-04-24T07:27:08;2.70;;;0.90;;
71937;SDS011;59810;48.800;9.086;2023-04-24T07:29:33;4.40;;;1.03;;
71937;SDS011;59810;48.800;9.086;2023-04-24T07:31:59;3.47;;;0.80;;
71937;SDS011;59810;48.800;9.086;2023-04-24T07:34:25;4.43;;;1.23;;
71937;SDS011;59810;48.800;9.086;2023-04-24T07:36:56;3.97;;;1.50;;
71937;SDS011;59810;48.800;9.086;2023-04-24T07:39:22;3.17;;;1.00;;
71937;SDS011;59810;48.800;9.086;2023-04-24T07:41:47;4.25;;;1.08;;
71937;SDS011;59810;48.800;9.086;2023-04-24T07:44:12;2.30;;;0.87;;
71937;SDS011;59810;48.800;9.086;2023-04-24T07:46:38;6.93;;;1.30;;
71937;SDS011;59810;48.800;9.086;2023-04-24T07:49:03;3.43;;;0.97;;
71937;SDS011;59810;48.800;9.086;2023-04-24T07:51:31;3.22;;;0.93;;
71937;SDS011;59810;48.800;9.086;2023-04-24T07:53:59;2.80;;;0.90;;
71937;SDS011;59810;48.800;9.086;2023-04-24T07:56:25;2.93;;;1.00;;
71937;SDS011;59810;48.800;9.086;2023-04-24T07:58:56;2.78;;;0.85;;
71937;SDS011;59810;48.800;9.086;2023-04-24T08:01:23;3.58;;;1.00;;
71937;SDS011;59810;48.800;9.086;2023-04-24T08:03:50;4.18;;;1.00;;
71937;SDS011;59810;48.800;9.086;2023-04-24T08:06:15;2.05;;;0.70;;
71937;SDS011;59810;48.800;9.086;2023-04-24T08:08:41;2.77;;;0.90;;
71937;SDS011;59810;48.800;9.086;2023-04-24T08:11:06;2.70;;;0.87;;
71937;SDS011;59810;48.800;9.086;2023-04-24T08:13:32;3.23;;;1.03;;
71937;SDS011;59810;48.800;9.086;2023-04-24T08:15:57;4.63;;;1.00;;
71937;SDS011;59810;48.800;9.086;2023-04-24T08:18:22;6.20;;;1.00;;
71937;SDS011;59810;48.800;9.086;2023-04-24T08:20:51;5.17;;;1.00;;
71937;SDS011;59810;48.800;9.086;2023-04-24T08:23:19;4.25;;;0.80;;
71937;SDS011;59810;48.800;9.086;2023-04-24T08:25:44;3.90;;;1.03;;
71937;SDS011;59810;48.800;9.086;2023-04-24T08:28:12;2.78;;;1.23;;
71937;SDS011;59810;48.800;9.086;2023-04-24T08:30:37;3.43;;;1.00;;
71937;SDS011;59810;48.800;9.086;2023-04-24T08:33:03;3.75;;;1.00;;
71937;SDS011;59810;48.800;9.086;2023-04-24T08:35:28;2.57;;;0.90;;
71937;SDS011;59810;48.800;9.086;2023-04-24T08:37:54;3.63;;;1.00;;
71937;SDS011;59810;48.800;9.086;2023-04-24T08:40:21;3.80;;;1.08;;
71937;SDS011;59810;48.800;9.086;2023-04-24T08:42:53;3.30;;;0.90;;
71937;SDS011;59810;48.800;9.086;2023-04-24T08:45:20;2.78;;;0.90;;
71937;SDS011;59810;48.800;9.086;2023-04-24T08:47:46;2.93;;;0.90;;
71937;SDS011;59810;48.800;9.086;2023-04-24T08:50:12;2.00;;;0.80;;
71937;SDS011;59810;48.800;9.086;2023-04-24T08:52:38;3.08;;;0.90;;
71937;SDS011;59810;48.800;9.086;2023-04-24T08:55:03;5.47;;;1.00;;
71937;SDS011;59810;48.800;9.086;2023-04-24T08:57:31;2.83;;;1.10;;
71937;SDS011;59810;48.800;9.086;2023-04-24T08:59:58;2.53;;;1.10;;
71937;SDS011;59810;48.800;9.086;2023-04-24T09:02:28;3.65;;;0.88;;
71937;SDS011;59810;48.800;9.086;2023-04-24T09:04:54;4.60;;;1.20;;
71937;SDS011;59810;48.800;9.086;2023-04-24T09:07:22;3.38;;;1.13;;
71937;SDS011;59810;48.800;9.086;2023-04-24T09:09:51;3.53;;;1.10;;
71937;SDS011;59810;48.800;9.086;2023-04-24T09:12:17;3.43;;;1.03;;
71937;SDS011;59810;48.800;9.086;2023-04-24T09:14:45;4.25;;;1.00;;
71937;SDS011;59810;48.800;9.086;2023-04-24T09:17:13;2.97;;;0.85;;
71937;SDS011;59810;48.800;9.086;2023-04-24T09:19:38;2.50;;;0.90;;
71937;SDS011;59810;48.800;9.086;2023-04-24T09:22:07;6.37;;;1.00;;
71937;SDS011;59810;48.800;9.086;2023-04-24T09:24:36;2.97;;;0.95;;
71937;SDS011;59810;48.800;9.086;2023-04-24T09:27:01;3.20;;;0.95;;
71937;SDS011;59810;48.800;9.086;2023-04-24T09:29:27;3.67;;;0.80;;
71937;SDS011;59810;48.800;9.086;2023-04-24T09:31:53;3.03;;;0.95;;
71937;SDS011;59810;48.800;9.086;2023-04-24T09:34:22;4.23;;;1.10;;
71937;SDS011;59810;48.800;9.086;2023-04-24T09:36:49;2.88;;;0.73;;
71937;SDS011;59810;48.800;9.086;2023-04-24T09:39:15;4.05;;;0.90;;
71937;SDS011;59810;48.800;9.086;2023-04-24T09:41:45;4.43;;;1.00;;
71937;SDS011;59810;48.800;9.086;2023-04-24T09:44:15;3.87;;;0.80;;
71937;SDS011;59810;48.800;9.086;2023-04-24T09:46:42;2.78;;;1.00;;
71937;SDS011;59810;48.800;9.086;2023-04-24T09:49:12;6.63;;;0.82;;
71937;SDS011;59810;48.800;9.086;2023-04-24T09:51:39;3.55;;;0.80;;
71937;SDS011;59810;48.800;9.086;2023-04-24T09:54:15;2.75;;;0.85;;
71937;SDS011;59810;48.800;9.086;2023-04-24T09:56:43;3.07;;;1.20;;
71937;SDS011;59810;48.800;9.086;2023-04-24T09:59:13;2.95;;;1.00;;
71937;SDS011;59810;48.800;9.086;2023-04-24T10:01:40;3.30;;;1.08;;
71937;SDS011;59810;48.800;9.086;2023-04-24T10:04:14;2.20;;;0.80;;
71937;SDS011;59810;48.800;9.086;2023-04-24T10:06:41;4.05;;;1.08;;
71937;SDS011;59810;48.800;9.086;2023-04-24T10:09:10;2.90;;;0.90;;
71937;SDS011;59810;48.800;9.086;2023-04-24T10:11:42;3.20;;;0.93;;
71937;SDS011;59810;48.800;9.086;2023-04-24T10:14:17;2.90;;;0.70;;
71937;SDS011;59810;48.800;9.086;2023-04-24T10:16:46;2.45;;;0.68;;
71937;SDS011;59810;48.800;9.086;2023-04-24T10:19:13;2.67;;;0.80;;
71937;SDS011;59810;48.800;9.086;2023-04-24T10:21:40;3.00;;;0.83;;
71937;SDS011;59810;48.800;9.086;2023-04-24T10:24:15;2.35;;;0.70;;
71937;SDS011;59810;48.800;9.086;2023-04-24T10:26:42;2.78;;;0.80;;
71937;SDS011;59810;48.800;9.086;2023-04-24T10:29:14;2.28;;;0.60;;
71937;SDS011;59810;48.800;9.086;2023-04-24T10:31:42;4.82;;;1.20;;
71937;SDS011;59810;48.800;9.086;2023-04-24T10:34:10;4.50;;;0.87;;
71937;SDS011;59810;48.800;9.086;2023-04-24T10:36:36;5.78;;;0.85;;
71937;SDS011;59810;48.800;9.086;2023-04-24T10:39:07;2.40;;;0.70;;
71937;SDS011;59810;48.800;9.086;2023-04-24T10:41:36;3.47;;;0.98;;
71937;SDS011;59810;48.800;9.086;2023-04-24T10:44:13;2.77;;;0.70;;
71937;SDS011;59810;48.800;9.086;2023-04-24T10:46:44;3.83;;;0.98;;
71937;SDS011;59810;48.800;9.086;2023-04-24T10:49:10;3.00;;;0.60;;
71937;SDS011;59810;48.800;9.086;2023-04-24T10:51:46;3.83;;;0.90;;
71937;SDS011;59810;48.800;9.086;2023-04-24T10:56:52;2.83;;;1.10;;
71937;SDS011;59810;48.800;9.086;2023-04-24T10:59:27;3.00;;;0.95;;
71937;SDS011;59810;48.800;9.086;2023-04-24T11:02:00;2.83;;;0.97;;
71937;SDS011;59810;48.800;9.086;2023-04-24T11:04:29;2.20;;;0.80;;
71937;SDS011;59810;48.800;9.086;2023-04-24T11:06:56;3.50;;;0.90;;
71937;SDS011;59810;48.800;9.086;2023-04-24T11:09:22;3.75;;;0.90;;
71937;SDS011;59810;48.800;9.086;2023-04-24T11:11:51;4.38;;;0.85;;
71937;SDS011;59810;48.800;9.086;2023-04-24T11:14:54;4.18;;;0.98;;
71937;SDS011;59810;48.800;9.086;2023-04-24T11:17:29;3.03;;;0.90;;
71937;SDS011;59810;48.800;9.086;2023-04-24T11:20:03;2.80;;;0.90;;
71937;SDS011;59810;48.800;9.086;2023-04-24T11:22:39;3.17;;;1.15;;
71937;SDS011;59810;48.800;9.086;2023-04-24T11:25:05;2.88;;;0.85;;
71937;SDS011;59810;48.800;9.086;2023-04-24T11:28:02;2.53;;;1.00;;
71937;SDS011;59810;48.800;9.086;2023-04-24T11:30:29;3.17;;;0.80;;
71937;SDS011;59810;48.800;9.086;2023-04-24T11:33:01;2.83;;;1.02;;
71937;SDS011;59810;48.800;9.086;2023-04-24T11:35:29;2.70;;;1.00;;
71937;SDS011;59810;48.800;9.086;2023-04-24T11:38:02;3.22;;;1.13;;
71937;SDS011;59810;48.800;9.086;2023-04-24T11:40:28;5.50;;;1.40;;
71937;SDS011;59810;48.800;9.086;2023-04-24T11:42:54;3.15;;;0.80;;
71937;SDS011;59810;48.800;9.086;2023-04-24T11:45:25;2.92;;;0.82;;
71937;SDS011;59810;48.800;9.086;2023-04-24T11:47:52;1.83;;;0.67;;
71937;SDS011;59810;48.800;9.086;2023-04-24T11:50:18;2.50;;;0.90;;
71937;SDS011;59810;48.800;9.086;2023-04-24T11:52:47;2.70;;;0.80;;
71937;SDS011;59810;48.800;9.086;2023-04-24T11:57:39;3.53;;;0.90;;
71937;SDS011;59810;48.800;9.086;2023-04-24T12:00:15;2.63;;;0.90;;
71937;SDS011;59810;48.800;9.086;2023-04-24T12:02:44;2.63;;;0.90;;
71937;SDS011;59810;48.800;9.086;2023-04-24T12:05:18;3.57;;;1.00;;
71937;SDS011;59810;48.800;9.086;2023-04-24T12:07:50;3.22;;;1.08;;
71937;SDS011;59810;48.800;9.086;2023-04-24T12:10:24;3.83;;;1.20;;
71937;SDS011;59810;48.800;9.086;2023-04-24T12:12:51;2.07;;;0.70;;
71937;SDS011;59810;48.800;9.086;2023-04-24T12:15:19;2.47;;;0.90;;
71937;SDS011;59810;48.800;9.086;2023-04-24T12:17:45;3.22;;;0.90;;
71937;SDS011;59810;48.800;9.086;2023-04-24T12:20:11;3.50;;;0.90;;
71937;SDS011;59810;48.800;9.086;2023-04-24T12:22:47;3.42;;;1.00;;
71937;SDS011;59810;48.800;9.086;2023-04-24T12:25:31;2.60;;;0.82;;
71937;SDS011;59810;48.800;9.086;2023-04-24T12:30:28;3.65;;;1.10;;
71937;SDS011;59810;48.800;9.086;2023-04-24T12:32:56;2.53;;;0.90;;
71937;SDS011;59810;48.800;9.086;2023-04-24T12:35:23;2.20;;;0.75;;
71937;SDS011;59810;48.800;9.086;2023-04-24T12:37:50;3.75;;;1.38;;
71937;SDS011;59810;48.800;9.086;2023-04-24T12:40:16;3.30;;;0.80;;
71937;SDS011;59810;48.800;9.086;2023-04-24T12:42:45;2.88;;;1.02;;
71937;SDS011;59810;48.800;9.086;2023-04-24T12:45:15;2.45;;;0.98;;
71937;SDS011;59810;48.800;9.086;2023-04-24T12:47:42;2.70;;;0.80;;
71937;SDS011;59810;48.800;9.086;2023-04-24T12:50:12;5.57;;;1.00;;
71937;SDS011;59810;48.800;9.086;2023-04-24T12:52:39;3.70;;;1.15;;
71937;SDS011;59810;48.800;9.086;2023-04-24T12:55:05;3.03;;;1.10;;
71937;SDS011;59810;48.800;9.086;2023-04-24T12:57:34;2.63;;;1.08;;
71937;SDS011;59810;48.800;9.086;2023-04-24T13:00:08;2.92;;;0.82;;
71937;SDS011;59810;48.800;9.086;2023-04-24T13:02:34;2.40;;;1.00;;
71937;SDS011;59810;48.800;9.086;2023-04-24T13:05:02;3.67;;;1.20;;
71937;SDS011;59810;48.800;9.086;2023-04-24T13:07:28;3.33;;;1.17;;
71937;SDS011;59810;48.800;9.086;2023-04-24T13:09:54;5.57;;;1.27;;
71937;SDS011;59810;48.800;9.086;2023-04-24T13:12:20;3.42;;;1.08;;
71937;SDS011;59810;48.800;9.086;2023-04-24T13:14:46;4.20;;;1.00;;
71937;SDS011;59810;48.800;9.086;2023-04-24T13:17:11;5.13;;;1.30;;
71937;SDS011;59810;48.800;9.086;2023-04-24T13:19:40;4.63;;;1.33;;
71937;SDS011;59810;48.800;9.086;2023-04-24T13:22:06;3.55;;;1.20;;
71937;SDS011;59810;48.800;9.086;2023-04-24T13:24:36;3.65;;;1.30;;
71937;SDS011;59810;48.800;9.086;2023-04-24T13:27:03;3.75;;;1.10;;
71937;SDS011;59810;48.800;9.086;2023-04-24T13:29:28;3.23;;;1.20;;
71937;SDS011;59810;48.800;9.086;2023-04-24T13:31:54;4.53;;;1.10;;
71937;SDS011;59810;48.800;9.086;2023-04-24T13:34:23;4.53;;;1.42;;
71937;SDS011;59810;48.800;9.086;2023-04-24T13:36:50;3.28;;;1.02;;
71937;SDS011;59810;48.800;9.086;2023-04-24T13:39:21;3.58;;;1.10;;
71937;SDS011;59810;48.800;9.086;2023-04-24T13:41:46;4.00;;;1.27;;
71937;SDS011;59810;48.800;9.086;2023-04-24T13:44:15;4.30;;;1.20;;
71937;SDS011;59810;48.800;9.086;2023-04-24T13:46:45;3.60;;;1.30;;
71937;SDS011;59810;48.800;9.086;2023-04-24T13:49:11;3.15;;;1.20;;
71937;SDS011;59810;48.800;9.086;2023-04-24T13:51:37;2.35;;;0.80;;
71937;SDS011;59810;48.800;9.086;2023-04-24T13:54:03;3.33;;;0.97;;
71937;SDS011;59810;48.800;9.086;2023-04-24T13:56:28;2.23;;;0.80;;
71937;SDS011;59810;48.800;9.086;2023-04-24T13:58:54;3.80;;;1.10;;
71937;SDS011;59810;48.800;9.086;2023-04-24T14:01:19;2.15;;;0.70;;
71937;SDS011;59810;48.800;9.086;2023-04-24T14:03:45;2.92;;;1.08;;
71937;SDS011;59810;48.800;9.086;2023-04-24T14:06:13;2.93;;;0.93;;
71937;SDS011;59810;48.800;9.086;2023-04-24T14:08:38;3.50;;;1.08;;
71937;SDS011;59810;48.800;9.086;2023-04-24T14:11:04;3.77;;;1.20;;
71937;SDS011;59810;48.800;9.086;2023-04-24T14:13:31;3.50;;;1.20;;
71937;SDS011;59810;48.800;9.086;2023-04-24T14:15:57;2.73;;;1.10;;
71937;SDS011;59810;48.800;9.086;2023-04-24T14:18:23;4.40;;;1.05;;
71937;SDS011;59810;48.800;9.086;2023-04-24T14:20:48;2.77;;;1.17;;
71937;SDS011;59810;48.800;9.086;2023-04-24T14:23:15;3.93;;;1.10;;
71937;SDS011;59810;48.800;9.086;2023-04-24T14:25:41;3.55;;;1.20;;
71937;SDS011;59810;48.800;9.086;2023-04-24T14:28:06;2.83;;;0.97;;
71937;SDS011;59810;48.800;9.086;2023-04-24T14:30:32;3.80;;;1.23;;
71937;SDS011;59810;48.800;9.086;2023-04-24T14:32:57;3.03;;;1.10;;
71937;SDS011;59810;48.800;9.086;2023-04-24T14:35:25;3.47;;;1.10;;
71937;SDS011;59810;48.800;9.086;2023-04-24T14:37:50;3.23;;;1.10;;
71937;SDS011;59810;48.800;9.086;2023-04-24T14:40:18;2.95;;;1.10;;
71937;SDS011;59810;48.800;9.086;2023-04-24T14:42:43;3.23;;;0.90;;
71937;SDS011;59810;48.800;9.086;2023-04-24T14:45:11;2.90;;;0.95;;
71937;SDS011;59810;48.800;9.086;2023-04-24T14:47:37;4.53;;;1.20;;
71937;SDS011;59810;48.800;9.086;2023-04-24T14:50:02;3.28;;;0.90;;
71937;SDS011;59810;48.800;9.086;2023-04-24T14:52:28;3.15;;;1.20;;
71937;SDS011;59810;48.800;9.086;2023-04-24T14:54:54;3.70;;;1.30;;